BEL4XV ELLX-EBBR
Flight info
| Callsign | BEL4XV |
|---|---|
| Flight time | 0h 27m |
| Altitude | 12000 |
| Route | LNO |
| Aircraft | A320/M-SDE3FGHIRWY/LB1 |
Departure
| Time | 2026-04-30 17:42 |
|---|---|
| Airport | Luxembourg-Findel International Airport (ELLX) |
Arrival
| Time | 2026-04-30 18:10 |
|---|---|
| Airport | Brussels Airport (EBBR) |
| Time | Latitude | Longitude | Altitude | Speed | Heading |
|---|---|---|---|---|---|
| 2026-04-30 17:39 | 49.61896 | 6.18753 | 1191 ft | 0 kts | 218° |
| 2026-04-30 17:41 | 49.61950 | 6.19281 | 1189 ft | 76 kts | 60° |
| 2026-04-30 17:42 | 49.62856 | 6.21678 | 1310 ft | 165 kts | 65° |
| 2026-04-30 17:42 | 49.64527 | 6.26047 | 3556 ft | 157 kts | 65° |
| 2026-04-30 17:43 | 49.65608 | 6.29029 | 4642 ft | 170 kts | 68° |
| 2026-04-30 17:44 | 49.69202 | 6.32000 | 5465 ft | 272 kts | 351° |
| 2026-04-30 17:44 | 49.74761 | 6.28286 | 7777 ft | 297 kts | 335° |
| 2026-04-30 17:46 | 49.83873 | 6.21803 | 10807 ft | 344 kts | 339° |
| 2026-04-30 17:47 | 49.93173 | 6.15604 | 12255 ft | 379 kts | 339° |
| 2026-04-30 17:48 | 50.03363 | 6.08741 | 12274 ft | 402 kts | 339° |
| 2026-04-30 17:48 | 50.09928 | 6.00875 | 12281 ft | 409 kts | 306° |
| 2026-04-30 17:49 | 50.16432 | 5.86269 | 12278 ft | 410 kts | 305° |
| 2026-04-30 17:50 | 50.22936 | 5.71624 | 12258 ft | 411 kts | 306° |
| 2026-04-30 17:51 | 50.27811 | 5.60592 | 12265 ft | 411 kts | 305° |
| 2026-04-30 17:52 | 50.32665 | 5.49544 | 12271 ft | 410 kts | 305° |
| 2026-04-30 17:53 | 50.40735 | 5.31099 | 12276 ft | 409 kts | 304° |
| 2026-04-30 17:54 | 50.47134 | 5.16374 | 12265 ft | 408 kts | 304° |
| 2026-04-30 17:55 | 50.53500 | 5.01628 | 12263 ft | 408 kts | 304° |
| 2026-04-30 17:56 | 50.59865 | 4.86833 | 12266 ft | 408 kts | 304° |
| 2026-04-30 17:57 | 50.64601 | 4.75751 | 12159 ft | 397 kts | 304° |
| 2026-04-30 17:58 | 50.68322 | 4.65026 | 10455 ft | 339 kts | 274° |
| 2026-04-30 17:59 | 50.63711 | 4.56285 | 9200 ft | 272 kts | 174° |
| 2026-04-30 18:00 | 50.58285 | 4.49863 | 7577 ft | 293 kts | 267° |
| 2026-04-30 18:00 | 50.61507 | 4.42086 | 6337 ft | 296 kts | 322° |
| 2026-04-30 18:01 | 50.64741 | 4.38097 | 5498 ft | 294 kts | 322° |
| 2026-04-30 18:02 | 50.69577 | 4.32183 | 4262 ft | 291 kts | 323° |
| 2026-04-30 18:02 | 50.74218 | 4.26204 | 3190 ft | 284 kts | 323° |
| 2026-04-30 18:03 | 50.78692 | 4.20210 | 2456 ft | 280 kts | 322° |
| 2026-04-30 18:04 | 50.83668 | 4.17988 | 2003 ft | 249 kts | 34° |
| 2026-04-30 18:05 | 50.88221 | 4.23786 | 1963 ft | 173 kts | 80° |
| 2026-04-30 18:06 | 50.87303 | 4.29892 | 1868 ft | 137 kts | 84° |
| 2026-04-30 18:07 | 50.88094 | 4.35724 | 1489 ft | 132 kts | 81° |
| 2026-04-30 18:08 | 50.88627 | 4.40011 | 946 ft | 136 kts | 81° |
| 2026-04-30 18:09 | 50.89864 | 4.45511 | 248 ft | 131 kts | 66° |
| 2026-04-30 18:10 | 50.90610 | 4.48431 | 140 ft | 16 kts | 121° |
| 2026-04-30 18:11 | 50.90445 | 4.48569 | 143 ft | 13 kts | 154° |
| 2026-04-30 18:11 | 50.90402 | 4.48601 | 143 ft | 0 kts | 155° |